Usace Nysb-3 — AESN — position and weather

sailwx.info

Track history (hours):
 
Tides and Currents Weather Stations Pressure Air Temp Water Temp Dewpoint Dewpoint Depression Visibility Wind Speed Wind Dir Waves Ship Positions

Usace Nysb-3

Last reported at 2017-Oct-13 19:15 UTC. Time now 2017-Oct-18 06:09 UTC.
Position N 40°42' W 074°04'.

Length 8 m.

Type: Dredging. MMSI: 368926078.

Date/timePositionNaut miles runAvg speedWind from/ knotsBaromVisibWave heightAir tempDewpointWater temp
2017-Oct-13 19:15N 40°42' W 074°04'0 0.2
2017-Oct-13 18:58N 40°42' W 074°04'1 0.5
2017-Oct-13 16:23N 40°41' W 074°04'  
2017-Oct-05 20:18N 40°42' W 074°04'0 0.1
2017-Oct-05 19:58N 40°42' W 074°04'0 0.0
2017-Oct-05 18:53N 40°42' W 074°04'0 0.0
2017-Oct-05 18:29N 40°42' W 074°04'0 0.0
2017-Oct-05 17:58N 40°42' W 074°04'2 2.9
2017-Oct-05 17:12N 40°43' W 074°06'2 7.3
2017-Oct-05 16:57N 40°45' W 074°05'5 3.2
2017-Oct-05 15:27N 40°41' W 074°08'4 8.6
2017-Oct-05 15:00N 40°40' W 074°03'1 1.5
2017-Oct-05 14:02N 40°40' W 074°01'114.6
2017-Oct-05 13:59N 40°40' W 074°02'2 0.1
2017-Oct-04 20:11N 40°41' W 074°04'415.4
2017-Oct-04 19:56N 40°39' W 074°09'7 9.7
2017-Oct-04 19:15N 40°45' W 074°05'0 1.1
2017-Oct-04 18:50N 40°45' W 074°05'0 0.4
2017-Oct-04 18:20N 40°44' W 074°05'0 0.3
2017-Oct-04 17:45N 40°44' W 074°05'0 0.6
2017-Oct-04 17:30N 40°44' W 074°05'1 1.4
2017-Oct-04 16:59N 40°44' W 074°06'0 0.5
2017-Oct-04 16:30N 40°44' W 074°06'1 1.1
2017-Oct-04 15:54N 40°44' W 074°06'1 0.9
2017-Oct-04 15:20N 40°44' W 074°05'1 2.7
2017-Oct-04 14:56N 40°44' W 074°06'1 2.2
2017-Oct-04 14:29N 40°44' W 074°05'1 2.6
2017-Oct-04 14:00N 40°43' W 074°06'4 8.3
2017-Oct-04 13:29N 40°39' W 074°05'2 0.1
2017-Oct-03 20:09N 40°41' W 074°04'3 6.1
2017-Oct-03 19:44N 40°43' W 074°06'2 6.8
2017-Oct-03 19:30N 40°44' W 074°05'  
Track history (hours):
 
Tides and Currents Weather Stations Pressure Air Temp Water Temp Dewpoint Dewpoint Depression Visibility Wind Speed Wind Dir Waves Ship Positions

Usace Nysb-3

Last reported at 2017-Oct-13 19:15 UTC. Time now 2017-Oct-18 06:09 UTC.
Position N 40°42' W 074°04'.

Length 8 m.

Type: Dredging. MMSI: 368926078.

Date/timePositionNaut miles runAvg speedWind from/ knotsBaromVisibWave heightAir tempDewpointWater temp
2017-Oct-13 19:15N 40°42' W 074°04'0 0.2
2017-Oct-13 18:58N 40°42' W 074°04'1 0.5
2017-Oct-13 16:23N 40°41' W 074°04'  
2017-Oct-05 20:18N 40°42' W 074°04'0 0.1
2017-Oct-05 19:58N 40°42' W 074°04'0 0.0
2017-Oct-05 18:53N 40°42' W 074°04'0 0.0
2017-Oct-05 18:29N 40°42' W 074°04'0 0.0
2017-Oct-05 17:58N 40°42' W 074°04'2 2.9
2017-Oct-05 17:12N 40°43' W 074°06'2 7.3
2017-Oct-05 16:57N 40°45' W 074°05'5 3.2
2017-Oct-05 15:27N 40°41' W 074°08'4 8.6
2017-Oct-05 15:00N 40°40' W 074°03'1 1.5
2017-Oct-05 14:02N 40°40' W 074°01'114.6
2017-Oct-05 13:59N 40°40' W 074°02'2 0.1
2017-Oct-04 20:11N 40°41' W 074°04'415.4
2017-Oct-04 19:56N 40°39' W 074°09'7 9.7
2017-Oct-04 19:15N 40°45' W 074°05'0 1.1
2017-Oct-04 18:50N 40°45' W 074°05'0 0.4
2017-Oct-04 18:20N 40°44' W 074°05'0 0.3
2017-Oct-04 17:45N 40°44' W 074°05'0 0.6
2017-Oct-04 17:30N 40°44' W 074°05'1 1.4
2017-Oct-04 16:59N 40°44' W 074°06'0 0.5
2017-Oct-04 16:30N 40°44' W 074°06'1 1.1
2017-Oct-04 15:54N 40°44' W 074°06'1 0.9
2017-Oct-04 15:20N 40°44' W 074°05'1 2.7
2017-Oct-04 14:56N 40°44' W 074°06'1 2.2
2017-Oct-04 14:29N 40°44' W 074°05'1 2.6
2017-Oct-04 14:00N 40°43' W 074°06'4 8.3
2017-Oct-04 13:29N 40°39' W 074°05'2 0.1
2017-Oct-03 20:09N 40°41' W 074°04'3 6.1
2017-Oct-03 19:44N 40°43' W 074°06'2 6.8
2017-Oct-03 19:30N 40°44' W 074°05'  

Dump ship's entire track history